Hanjin Chongqing — 3EPJ2 — position and weather

sailwx.info

Track history (hours):
 
Tides and Currents Weather Stations Pressure Air Temp Water Temp Dewpoint Dewpoint Depression Visibility Wind Speed Wind Dir Waves Ship Positions

Hanjin Chongqing

Last reported at 2016-Jul-21 06:08 UTC. Time now 2016-Aug-25 22:00 UTC.
Position N 31°40' W 080°10'.
Warning: this ship's position is 35 days out of date.

Length 304 m; draft 12 m.

Type: Cargo ship. MMSI: 353957976.

Date/timePositionNaut miles runAvg speedWind from/ knotsBaromVisibWave heightAir tempDewpointWater temp
2016-Jul-21 06:08N 31°40' W 080°10'2917.8
2016-Jul-21 04:31N 31°56' W 080°38'1112.0
2016-Jul-21 03:33N 32°02' W 080°50'1010.3
2016-Jul-21 02:33N 32°06' W 081°01'5 5.1
2016-Jul-21 01:34N 32°06' W 081°07'2 1.8
2016-Jul-21 00:33N 32°08' W 081°08'0 0.0
2016-Jul-20 23:33N 32°08' W 081°08'0 0.0
2016-Jul-20 22:33N 32°08' W 081°08'0 0.0
2016-Jul-20 21:33N 32°08' W 081°08'0 0.0
2016-Jul-20 20:33N 32°08' W 081°08'0 0.0
2016-Jul-20 19:33N 32°08' W 081°08'0 0.0
2016-Jul-20 18:33N 32°08' W 081°08'0 0.0
2016-Jul-20 17:21N 32°08' W 081°08'0 0.0
2016-Jul-20 16:33N 32°08' W 081°08'0 0.0
2016-Jul-20 15:33N 32°08' W 081°08'0 0.0
2016-Jul-20 14:33N 32°08' W 081°08'0 0.0
2016-Jul-20 13:33N 32°08' W 081°08'0 0.0
2016-Jul-20 12:33N 32°08' W 081°08'0 0.1
2016-Jul-20 11:32N 32°08' W 081°08'5 4.9
2016-Jul-20 10:33N 32°05' W 081°04'8 7.9
2016-Jul-20 09:34N 32°02' W 080°55'1111.4
2016-Jul-20 08:33N 31°58' W 080°43'7 7.5
2016-Jul-20 07:33N 31°59' W 080°34'9 8.6
2016-Jul-20 06:34N 32°00' W 080°24'9 9.0
2016-Jul-20 05:33N 32°03' W 080°14'  
2016-Jul-18 01:26N 34°08' W 076°33'1214.1
2016-Jul-18 00:33N 34°16' W 076°21'1717.2
2016-Jul-17 23:33N 34°27' W 076°05'1716.5
2016-Jul-17 22:33N 34°38' W 075°50'22212.2
2016-Jul-17 04:21N 38°06' W 074°16'1112.6
2016-Jul-17 03:27N 38°17' W 074°14'1712.9
2016-Jul-17 02:09N 38°34' W 074°10'1212.7
2016-Jul-17 01:11N 38°46' W 074°07'812.8
2016-Jul-17 00:33N 38°54' W 074°05'1212.2
2016-Jul-16 23:33N 39°06' W 074°02'1212.4
2016-Jul-16 22:33N 39°18' W 073°59'1312.7
2016-Jul-16 21:33N 39°30' W 073°56'1212.2
2016-Jul-16 20:33N 39°42' W 073°53'1312.7
2016-Jul-16 19:33N 39°55' W 073°51'1312.5
2016-Jul-16 18:33N 40°07' W 073°50'1212.5
2016-Jul-16 17:33N 40°20' W 073°49'1110.6
2016-Jul-16 16:33N 40°29' W 073°55'1312.6
2016-Jul-16 15:33N 40°39' W 074°05'3 2.6
2016-Jul-16 14:34N 40°40' W 074°08'1 0.6
2016-Jul-16 13:29N 40°41' W 074°09'0 0.0
2016-Jul-16 12:32N 40°41' W 074°09'0 0.0
2016-Jul-16 11:32N 40°41' W 074°09'0 0.0
2016-Jul-16 10:32N 40°41' W 074°09'0 0.0
2016-Jul-16 09:32N 40°41' W 074°09'0 0.0
2016-Jul-16 08:32N 40°41' W 074°09'0 0.0
2016-Jul-16 07:32N 40°41' W 074°09'0 0.0
2016-Jul-16 06:32N 40°41' W 074°09'0 0.0
2016-Jul-16 04:32N 40°41' W 074°09'0 0.0
2016-Jul-16 03:32N 40°41' W 074°09'0 0.0
2016-Jul-16 02:32N 40°41' W 074°09'0 0.0
2016-Jul-16 01:32N 40°41' W 074°09'0 0.0
2016-Jul-16 00:32N 40°41' W 074°09'0 0.0
2016-Jul-15 23:32N 40°41' W 074°09'0 0.0
2016-Jul-15 22:32N 40°41' W 074°09'0 0.0
2016-Jul-15 21:32N 40°41' W 074°09'0 0.0
2016-Jul-15 20:32N 40°41' W 074°09'0 0.0
2016-Jul-15 19:32N 40°41' W 074°09'0 0.0
2016-Jul-15 18:32N 40°41' W 074°09'0 0.0
2016-Jul-15 17:32N 40°41' W 074°09'0 0.0
2016-Jul-15 16:32N 40°41' W 074°09'0 0.0
2016-Jul-15 15:32N 40°41' W 074°09'0 0.0
2016-Jul-15 14:32N 40°41' W 074°09'0 0.0
2016-Jul-15 13:32N 40°41' W 074°09'0 0.0
2016-Jul-15 12:32N 40°41' W 074°09'0 0.0
2016-Jul-15 11:32N 40°41' W 074°09'2 2.1
2016-Jul-15 10:33N 40°39' W 074°09'5 5.0
2016-Jul-15 09:33N 40°37' W 074°03'10 9.6
2016-Jul-15 08:33N 40°29' W 073°55'9 9.1
2016-Jul-15 07:33N 40°23' W 073°47'1411.8
2016-Jul-15 06:24N 40°09' W 073°46'1517.5
2016-Jul-15 05:33N 39°54' W 073°43'1817.8
2016-Jul-15 04:33N 39°38' W 073°35'1717.4
2016-Jul-15 03:33N 39°22' W 073°25'1717.4
2016-Jul-15 02:33N 39°06' W 073°15'1717.0
2016-Jul-15 01:32N 38°51' W 073°04'1717.3
2016-Jul-15 00:33N 38°36' W 072°53'  
Track history (hours):
 
Tides and Currents Weather Stations Pressure Air Temp Water Temp Dewpoint Dewpoint Depression Visibility Wind Speed Wind Dir Waves Ship Positions

Hanjin Chongqing

Last reported at 2016-Jul-21 06:08 UTC. Time now 2016-Aug-25 22:00 UTC.
Position N 31°40' W 080°10'.
Warning: this ship's position is 35 days out of date.

Length 304 m; draft 12 m.

Type: Cargo ship. MMSI: 353957976.

Date/timePositionNaut miles runAvg speedWind from/ knotsBaromVisibWave heightAir tempDewpointWater temp
2016-Jul-21 06:08N 31°40' W 080°10'2917.8
2016-Jul-21 04:31N 31°56' W 080°38'1112.0
2016-Jul-21 03:33N 32°02' W 080°50'1010.3
2016-Jul-21 02:33N 32°06' W 081°01'5 5.1
2016-Jul-21 01:34N 32°06' W 081°07'2 1.8
2016-Jul-21 00:33N 32°08' W 081°08'0 0.0
2016-Jul-20 23:33N 32°08' W 081°08'0 0.0
2016-Jul-20 22:33N 32°08' W 081°08'0 0.0
2016-Jul-20 21:33N 32°08' W 081°08'0 0.0
2016-Jul-20 20:33N 32°08' W 081°08'0 0.0
2016-Jul-20 19:33N 32°08' W 081°08'0 0.0
2016-Jul-20 18:33N 32°08' W 081°08'0 0.0
2016-Jul-20 17:21N 32°08' W 081°08'0 0.0
2016-Jul-20 16:33N 32°08' W 081°08'0 0.0
2016-Jul-20 15:33N 32°08' W 081°08'0 0.0
2016-Jul-20 14:33N 32°08' W 081°08'0 0.0
2016-Jul-20 13:33N 32°08' W 081°08'0 0.0
2016-Jul-20 12:33N 32°08' W 081°08'0 0.1
2016-Jul-20 11:32N 32°08' W 081°08'5 4.9
2016-Jul-20 10:33N 32°05' W 081°04'8 7.9
2016-Jul-20 09:34N 32°02' W 080°55'1111.4
2016-Jul-20 08:33N 31°58' W 080°43'7 7.5
2016-Jul-20 07:33N 31°59' W 080°34'9 8.6
2016-Jul-20 06:34N 32°00' W 080°24'9 9.0
2016-Jul-20 05:33N 32°03' W 080°14'  
2016-Jul-18 01:26N 34°08' W 076°33'1214.1
2016-Jul-18 00:33N 34°16' W 076°21'1717.2
2016-Jul-17 23:33N 34°27' W 076°05'1716.5
2016-Jul-17 22:33N 34°38' W 075°50'22212.2
2016-Jul-17 04:21N 38°06' W 074°16'1112.6
2016-Jul-17 03:27N 38°17' W 074°14'1712.9
2016-Jul-17 02:09N 38°34' W 074°10'1212.7
2016-Jul-17 01:11N 38°46' W 074°07'812.8
2016-Jul-17 00:33N 38°54' W 074°05'1212.2
2016-Jul-16 23:33N 39°06' W 074°02'1212.4
2016-Jul-16 22:33N 39°18' W 073°59'1312.7
2016-Jul-16 21:33N 39°30' W 073°56'1212.2
2016-Jul-16 20:33N 39°42' W 073°53'1312.7
2016-Jul-16 19:33N 39°55' W 073°51'1312.5
2016-Jul-16 18:33N 40°07' W 073°50'1212.5
2016-Jul-16 17:33N 40°20' W 073°49'1110.6
2016-Jul-16 16:33N 40°29' W 073°55'1312.6
2016-Jul-16 15:33N 40°39' W 074°05'3 2.6
2016-Jul-16 14:34N 40°40' W 074°08'1 0.6
2016-Jul-16 13:29N 40°41' W 074°09'0 0.0
2016-Jul-16 12:32N 40°41' W 074°09'0 0.0
2016-Jul-16 11:32N 40°41' W 074°09'0 0.0
2016-Jul-16 10:32N 40°41' W 074°09'0 0.0
2016-Jul-16 09:32N 40°41' W 074°09'0 0.0
2016-Jul-16 08:32N 40°41' W 074°09'0 0.0
2016-Jul-16 07:32N 40°41' W 074°09'0 0.0
2016-Jul-16 06:32N 40°41' W 074°09'0 0.0
2016-Jul-16 04:32N 40°41' W 074°09'0 0.0
2016-Jul-16 03:32N 40°41' W 074°09'0 0.0
2016-Jul-16 02:32N 40°41' W 074°09'0 0.0
2016-Jul-16 01:32N 40°41' W 074°09'0 0.0
2016-Jul-16 00:32N 40°41' W 074°09'0 0.0
2016-Jul-15 23:32N 40°41' W 074°09'0 0.0
2016-Jul-15 22:32N 40°41' W 074°09'0 0.0
2016-Jul-15 21:32N 40°41' W 074°09'0 0.0
2016-Jul-15 20:32N 40°41' W 074°09'0 0.0
2016-Jul-15 19:32N 40°41' W 074°09'0 0.0
2016-Jul-15 18:32N 40°41' W 074°09'0 0.0
2016-Jul-15 17:32N 40°41' W 074°09'0 0.0
2016-Jul-15 16:32N 40°41' W 074°09'0 0.0
2016-Jul-15 15:32N 40°41' W 074°09'0 0.0
2016-Jul-15 14:32N 40°41' W 074°09'0 0.0
2016-Jul-15 13:32N 40°41' W 074°09'0 0.0
2016-Jul-15 12:32N 40°41' W 074°09'0 0.0
2016-Jul-15 11:32N 40°41' W 074°09'2 2.1
2016-Jul-15 10:33N 40°39' W 074°09'5 5.0
2016-Jul-15 09:33N 40°37' W 074°03'10 9.6
2016-Jul-15 08:33N 40°29' W 073°55'9 9.1
2016-Jul-15 07:33N 40°23' W 073°47'1411.8
2016-Jul-15 06:24N 40°09' W 073°46'1517.5
2016-Jul-15 05:33N 39°54' W 073°43'1817.8
2016-Jul-15 04:33N 39°38' W 073°35'1717.4
2016-Jul-15 03:33N 39°22' W 073°25'1717.4
2016-Jul-15 02:33N 39°06' W 073°15'1717.0
2016-Jul-15 01:32N 38°51' W 073°04'1717.3
2016-Jul-15 00:33N 38°36' W 072°53'  

Dump ship's entire track history